createdAt,value
2018-12-10T00:00:02.386Z,43.00
2018-12-10T00:01:02.338Z,43.48
2018-12-10T00:02:02.290Z,43.48
2018-12-10T00:03:02.242Z,43.57
2018-12-10T00:04:02.196Z,43.46
2018-12-10T00:05:02.163Z,43.36
2018-12-10T00:06:02.094Z,43.48
2018-12-10T00:07:02.046Z,43.36
2018-12-10T00:08:01.998Z,43.38
2018-12-10T00:09:01.947Z,43.38
2018-12-10T00:10:01.898Z,43.48
2018-12-10T00:11:01.849Z,43.38
2018-12-10T00:12:01.799Z,43.38
2018-12-10T00:13:01.751Z,43.38
2018-12-10T00:14:01.703Z,43.38
2018-12-10T00:15:01.654Z,43.46
2018-12-10T00:16:01.607Z,43.19
2018-12-10T00:17:01.557Z,42.88
2018-12-10T00:18:01.507Z,43.00
2018-12-10T00:19:01.457Z,42.90
2018-12-10T00:20:01.408Z,42.98
2018-12-10T00:21:01.359Z,42.81
2018-12-10T00:22:01.311Z,42.81
2018-12-10T00:23:01.260Z,42.71
2018-12-10T00:24:01.213Z,42.90
2018-12-10T00:25:01.167Z,42.71
2018-12-10T00:26:01.115Z,42.88
2018-12-10T00:27:01.066Z,42.81
2018-12-10T00:28:01.017Z,42.90
2018-12-10T00:29:00.967Z,43.57
2018-12-10T00:30:00.920Z,43.10
2018-12-10T00:31:00.870Z,43.07
2018-12-10T00:32:00.821Z,42.90
2018-12-10T00:33:00.773Z,42.71
2018-12-10T00:34:00.798Z,42.90
2018-12-10T00:35:00.674Z,42.71
2018-12-10T00:36:00.624Z,42.71
2018-12-10T00:37:00.577Z,42.60
2018-12-10T00:38:00.529Z,42.81
2018-12-10T00:39:00.478Z,42.81
2018-12-10T00:40:00.430Z,42.71
2018-12-10T00:41:00.697Z,42.60
2018-12-10T00:42:00.336Z,42.61
2018-12-10T00:43:00.282Z,42.69
2018-12-10T00:44:00.234Z,42.60
2018-12-10T00:45:00.185Z,42.79
2018-12-10T00:46:00.143Z,42.79
2018-12-10T00:47:00.086Z,42.81
2018-12-10T00:48:00.038Z,42.79
2018-12-10T00:48:59.991Z,42.79
2018-12-10T00:49:59.939Z,42.88
2018-12-10T00:50:59.890Z,42.71
2018-12-10T00:51:59.842Z,42.40
2018-12-10T00:52:59.792Z,42.79
2018-12-10T00:53:59.747Z,42.60
2018-12-10T00:54:59.696Z,42.69
2018-12-10T00:55:59.646Z,42.50
2018-12-10T00:56:59.597Z,42.60
2018-12-10T00:57:59.547Z,42.69
2018-12-10T00:58:59.499Z,42.50
2018-12-10T00:59:59.500Z,42.60
2018-12-10T01:00:59.401Z,42.71
2018-12-10T01:01:59.351Z,42.61
2018-12-10T01:02:59.303Z,42.60
2018-12-10T01:03:59.254Z,42.69
2018-12-10T01:04:59.206Z,42.60
2018-12-10T01:05:59.156Z,42.69
2018-12-10T01:06:59.106Z,42.69
2018-12-10T01:07:59.058Z,42.60
2018-12-10T01:08:59.009Z,42.60
2018-12-10T01:09:58.961Z,42.79
2018-12-10T01:10:58.912Z,42.79
2018-12-10T01:11:58.862Z,42.79
2018-12-10T01:12:58.814Z,42.79
2018-12-10T01:13:58.765Z,42.60
2018-12-10T01:14:58.716Z,42.60
2018-12-10T01:15:58.667Z,42.60
2018-12-10T01:16:58.618Z,42.69
2018-12-10T01:17:58.569Z,42.69
2018-12-10T01:18:58.519Z,42.79
2018-12-10T01:19:58.469Z,42.61
2018-12-10T01:20:58.422Z,42.69
2018-12-10T01:21:58.373Z,42.43
2018-12-10T01:22:58.323Z,42.69
2018-12-10T01:23:58.324Z,42.69
2018-12-10T01:24:58.225Z,42.61
2018-12-10T01:25:58.176Z,42.50
2018-12-10T01:26:58.128Z,42.69
2018-12-10T01:27:58.079Z,42.69
2018-12-10T01:28:58.037Z,42.69
2018-12-10T01:29:57.981Z,42.50
2018-12-10T01:30:57.933Z,42.69
2018-12-10T01:31:57.881Z,42.50
2018-12-10T01:32:57.834Z,42.69
2018-12-10T01:33:57.786Z,42.69
2018-12-10T01:34:57.735Z,42.50
2018-12-10T01:35:57.686Z,42.69
2018-12-10T01:36:57.638Z,42.69
2018-12-10T01:37:57.589Z,42.69
2018-12-10T01:38:57.539Z,42.69
2018-12-10T01:39:57.491Z,42.50
2018-12-10T01:40:57.441Z,42.69
2018-12-10T01:41:57.393Z,42.60
2018-12-10T01:42:57.343Z,42.69
2018-12-10T01:43:57.294Z,42.69
2018-12-10T01:44:57.245Z,42.60
2018-12-10T01:45:57.197Z,42.69
2018-12-10T01:46:57.153Z,42.60
2018-12-10T01:47:57.098Z,42.69
2018-12-10T01:48:57.050Z,42.69
2018-12-10T01:49:57.001Z,42.60
2018-12-10T01:50:56.951Z,42.60
2018-12-10T01:51:56.902Z,42.60
2018-12-10T01:52:56.854Z,42.69
2018-12-10T01:53:56.804Z,42.79
2018-12-10T01:54:56.755Z,42.69
2018-12-10T01:55:56.706Z,42.60
2018-12-10T01:56:56.658Z,42.60
2018-12-10T01:57:56.609Z,42.50
2018-12-10T01:58:56.558Z,42.60
2018-12-10T01:59:56.510Z,42.69
2018-12-10T02:00:56.461Z,42.60
2018-12-10T02:01:56.412Z,42.88
2018-12-10T02:02:56.362Z,42.79
2018-12-10T02:03:56.314Z,42.69
2018-12-10T02:04:56.264Z,42.88
2018-12-10T02:05:56.216Z,42.88
2018-12-10T02:06:56.165Z,42.88
2018-12-10T02:07:56.117Z,42.98
2018-12-10T02:08:56.069Z,42.88
2018-12-10T02:09:56.020Z,42.69
2018-12-10T02:10:55.972Z,42.79
2018-12-10T02:11:55.920Z,42.69
2018-12-10T02:12:55.873Z,42.50
2018-12-10T02:13:55.829Z,42.69
2018-12-10T02:14:55.774Z,42.69
2018-12-10T02:15:55.725Z,42.69
2018-12-10T02:16:55.679Z,42.69
2018-12-10T02:17:55.627Z,42.40
2018-12-10T02:18:55.578Z,42.79
2018-12-10T02:19:55.529Z,42.79
2018-12-10T02:20:55.480Z,42.79
2018-12-10T02:21:55.432Z,42.69
2018-12-10T02:22:55.382Z,42.60
2018-12-10T02:23:55.334Z,42.69
2018-12-10T02:24:55.284Z,42.79
2018-12-10T02:25:55.235Z,42.79
2018-12-10T02:26:55.185Z,42.60
2018-12-10T02:27:55.139Z,42.60
2018-12-10T02:28:55.090Z,42.60
2018-12-10T02:29:55.038Z,42.60
2018-12-10T02:30:54.990Z,42.50
2018-12-10T02:31:54.940Z,42.69
2018-12-10T02:32:54.891Z,42.79
2018-12-10T02:33:54.906Z,42.79
2018-12-10T02:34:54.794Z,42.79
2018-12-10T02:35:54.771Z,42.69
2018-12-10T02:36:54.697Z,42.60
2018-12-10T02:37:54.646Z,42.50
2018-12-10T02:38:54.600Z,42.69
2018-12-10T02:39:54.549Z,42.69
2018-12-10T02:40:54.499Z,42.88
2018-12-10T02:41:54.452Z,42.88
2018-12-10T02:42:54.402Z,42.79
2018-12-10T02:43:54.354Z,42.60
2018-12-10T02:44:54.304Z,42.69
2018-12-10T02:45:54.259Z,42.69
2018-12-10T02:46:54.205Z,42.79
2018-12-10T02:47:54.155Z,42.69
2018-12-10T02:48:54.108Z,42.50
2018-12-10T02:49:54.061Z,42.69
2018-12-10T02:50:54.013Z,42.69
2018-12-10T02:51:53.960Z,42.79
2018-12-10T02:52:53.911Z,42.69
2018-12-10T02:53:53.862Z,42.69
2018-12-10T02:54:53.814Z,42.69
2018-12-10T02:55:53.764Z,42.69
2018-12-10T02:56:53.715Z,42.60
2018-12-10T02:57:53.667Z,42.79
2018-12-10T02:58:53.621Z,42.60
2018-12-10T02:59:53.568Z,42.60
2018-12-10T03:00:53.518Z,42.60
2018-12-10T03:01:53.474Z,42.60
2018-12-10T03:02:53.420Z,42.69
2018-12-10T03:03:53.370Z,42.79
2018-12-10T03:04:53.322Z,42.69
2018-12-10T03:05:53.275Z,42.79
2018-12-10T03:06:53.225Z,42.60
2018-12-10T03:07:53.175Z,42.69
2018-12-10T03:08:53.126Z,42.69
2018-12-10T03:09:53.078Z,42.69
2018-12-10T03:10:53.027Z,42.69
2018-12-10T03:11:52.980Z,42.69
2018-12-10T03:12:52.930Z,42.50
2018-12-10T03:13:52.881Z,42.60
2018-12-10T03:14:52.832Z,42.69
2018-12-10T03:15:52.783Z,42.88
2018-12-10T03:16:52.734Z,42.88
2018-12-10T03:17:53.005Z,42.88
2018-12-10T03:18:52.954Z,42.79
2018-12-10T03:19:52.586Z,42.79
2018-12-10T03:20:53.000Z,42.88
2018-12-10T03:21:52.488Z,42.88
2018-12-10T03:22:52.440Z,42.69
2018-12-10T03:23:52.390Z,42.98
2018-12-10T03:24:52.341Z,42.88
2018-12-10T03:25:52.293Z,42.69
2018-12-10T03:26:52.243Z,42.50
2018-12-10T03:27:52.194Z,42.50
2018-12-10T03:28:52.145Z,42.69
2018-12-10T03:29:52.096Z,42.60
2018-12-10T03:30:52.047Z,42.60
2018-12-10T03:31:52.000Z,42.69
2018-12-10T03:32:52.071Z,42.60
2018-12-10T03:33:51.900Z,42.69
2018-12-10T03:34:51.850Z,42.69
2018-12-10T03:35:51.801Z,42.69
2018-12-10T03:36:51.758Z,42.60
2018-12-10T03:37:51.702Z,42.79
2018-12-10T03:38:51.653Z,42.88
2018-12-10T03:39:51.604Z,42.88
2018-12-10T03:40:51.556Z,42.88
2018-12-10T03:41:51.508Z,42.60
2018-12-10T03:42:51.457Z,42.60
2018-12-10T03:43:51.409Z,42.79
2018-12-10T03:44:51.360Z,42.69
2018-12-10T03:45:51.309Z,42.50
2018-12-10T03:46:51.260Z,42.60
2018-12-10T03:47:51.212Z,42.79
2018-12-10T03:48:51.166Z,42.69
2018-12-10T03:49:51.114Z,42.69
2018-12-10T03:50:51.065Z,42.69
2018-12-10T03:51:51.016Z,42.69
2018-12-10T03:52:50.966Z,42.69
2018-12-10T03:53:50.919Z,42.69
2018-12-10T03:54:50.868Z,42.79
2018-12-10T03:55:50.824Z,42.79
2018-12-10T03:56:50.781Z,42.40
2018-12-10T03:57:50.722Z,42.60
2018-12-10T03:58:50.672Z,42.60
2018-12-10T03:59:50.624Z,42.50
2018-12-10T04:00:50.575Z,42.79
2018-12-10T04:01:50.526Z,42.60
2018-12-10T04:02:50.476Z,42.69
2018-12-10T04:03:50.427Z,42.60
2018-12-10T04:04:50.378Z,42.79
2018-12-10T04:05:50.331Z,42.40
2018-12-10T04:06:50.279Z,42.40
2018-12-10T04:07:50.232Z,42.40
2018-12-10T04:08:50.182Z,42.40
2018-12-10T04:09:50.134Z,42.40
2018-12-10T04:10:50.083Z,42.40
2018-12-10T04:11:50.034Z,42.50
2018-12-10T04:12:49.985Z,42.40
2018-12-10T04:13:49.937Z,42.60
2018-12-10T04:14:49.887Z,42.50
2018-12-10T04:15:49.838Z,42.40
2018-12-10T04:16:49.790Z,42.50
2018-12-10T04:17:49.750Z,42.40
2018-12-10T04:18:49.698Z,42.50
2018-12-10T04:19:49.642Z,42.69
2018-12-10T04:20:49.594Z,42.50
2018-12-10T04:21:49.544Z,42.50
2018-12-10T04:22:49.494Z,42.50
2018-12-10T04:23:49.449Z,42.40
2018-12-10T04:24:49.400Z,42.40
2018-12-10T04:25:49.350Z,42.40
2018-12-10T04:26:49.299Z,42.50
2018-12-10T04:27:49.250Z,42.30
2018-12-10T04:28:49.201Z,42.60
2018-12-10T04:29:49.154Z,42.50
2018-12-10T04:30:49.136Z,42.40
2018-12-10T04:31:49.053Z,42.50
2018-12-10T04:32:49.010Z,42.40
2018-12-10T04:33:48.956Z,42.21
2018-12-10T04:34:48.907Z,42.21
2018-12-10T04:35:48.858Z,42.40
2018-12-10T04:36:48.810Z,42.21
2018-12-10T04:37:48.760Z,42.50
2018-12-10T04:38:48.710Z,42.30
2018-12-10T04:39:48.662Z,42.30
2018-12-10T04:40:48.613Z,42.40
2018-12-10T04:41:48.564Z,42.40
2018-12-10T04:42:48.513Z,42.40
2018-12-10T04:43:48.465Z,42.30
2018-12-10T04:44:48.416Z,42.40
2018-12-10T04:45:48.370Z,42.30
2018-12-10T04:46:48.317Z,42.50
2018-12-10T04:47:48.269Z,42.21
2018-12-10T04:48:48.220Z,42.40
2018-12-10T04:49:48.170Z,42.02
2018-12-10T04:50:48.121Z,42.40
2018-12-10T04:51:48.073Z,42.11
2018-12-10T04:52:48.023Z,42.11
2018-12-10T04:53:47.974Z,42.02
2018-12-10T04:54:47.925Z,42.02
2018-12-10T04:55:47.876Z,42.40
2018-12-10T04:56:47.827Z,42.50
2018-12-10T04:57:47.778Z,42.02
2018-12-10T04:58:47.728Z,42.50
2018-12-10T04:59:52.727Z,42.60
2018-12-10T05:00:47.630Z,42.50
2018-12-10T05:01:47.588Z,42.40
2018-12-10T05:02:47.531Z,42.50
2018-12-10T05:03:47.484Z,42.02
2018-12-10T05:04:47.433Z,42.11
2018-12-10T05:05:47.387Z,42.02
2018-12-10T05:06:47.336Z,42.02
2018-12-10T05:07:47.287Z,42.02
2018-12-10T05:08:47.237Z,42.02
2018-12-10T05:09:47.189Z,42.02
2018-12-10T05:10:47.144Z,41.93
2018-12-10T05:11:47.090Z,42.02
2018-12-10T05:12:47.042Z,42.02
2018-12-10T05:13:46.991Z,42.02
2018-12-10T05:14:46.944Z,42.02
2018-12-10T05:15:46.894Z,42.02
2018-12-10T05:16:46.845Z,42.40
2018-12-10T05:17:46.796Z,42.40
2018-12-10T05:18:46.748Z,42.40
2018-12-10T05:19:46.698Z,41.93
2018-12-10T05:20:46.650Z,42.02
2018-12-10T05:21:46.602Z,42.11
2018-12-10T05:22:46.550Z,42.11
2018-12-10T05:23:46.501Z,42.21
2018-12-10T05:24:46.452Z,42.02
2018-12-10T05:25:46.405Z,42.02
2018-12-10T05:26:46.354Z,42.50
2018-12-10T05:27:46.305Z,42.50
2018-12-10T05:28:46.258Z,42.40
2018-12-10T05:29:46.208Z,42.40
2018-12-10T05:30:46.157Z,42.40
2018-12-10T05:31:46.108Z,42.50
2018-12-10T05:32:46.060Z,42.02
2018-12-10T05:33:46.011Z,42.11
2018-12-10T05:34:45.962Z,42.50
2018-12-10T05:35:45.911Z,42.50
2018-12-10T05:36:45.865Z,42.40
2018-12-10T05:37:45.815Z,42.40
2018-12-10T05:38:45.764Z,42.40
2018-12-10T05:39:45.716Z,42.50
2018-12-10T05:40:45.667Z,42.40
2018-12-10T05:41:45.618Z,42.11
2018-12-10T05:42:45.568Z,42.02
2018-12-10T05:43:45.520Z,42.40
2018-12-10T05:44:45.470Z,42.11
2018-12-10T05:45:45.423Z,42.50
2018-12-10T05:46:45.373Z,42.11
2018-12-10T05:47:45.323Z,42.02
2018-12-10T05:48:45.274Z,42.40
2018-12-10T05:49:45.226Z,42.02
2018-12-10T05:50:45.175Z,42.02
2018-12-10T05:51:45.129Z,42.02
2018-12-10T05:52:45.076Z,42.40
2018-12-10T05:53:45.029Z,42.40
2018-12-10T05:54:44.979Z,42.02
2018-12-10T05:55:44.931Z,42.11
2018-12-10T05:56:44.882Z,42.50
2018-12-10T05:57:44.831Z,42.40
2018-12-10T05:58:44.783Z,42.50
2018-12-10T05:59:44.734Z,42.30
2018-12-10T06:00:44.683Z,42.30
2018-12-10T06:01:44.636Z,42.40
2018-12-10T06:02:44.586Z,42.40
2018-12-10T06:03:44.537Z,42.30
2018-12-10T06:04:44.487Z,42.50
2018-12-10T06:05:44.440Z,42.40
2018-12-10T06:06:44.390Z,42.30
2018-12-10T06:07:44.341Z,42.30
2018-12-10T06:08:44.292Z,42.40
2018-12-10T06:09:44.342Z,42.30
2018-12-10T06:10:44.193Z,42.21
2018-12-10T06:11:44.144Z,42.40
2018-12-10T06:12:44.095Z,42.50
2018-12-10T06:13:44.046Z,42.40
2018-12-10T06:14:43.996Z,42.30
2018-12-10T06:15:43.950Z,42.30
2018-12-10T06:16:43.899Z,42.40
2018-12-10T06:17:43.850Z,42.40
2018-12-10T06:18:43.800Z,42.40
2018-12-10T06:19:43.750Z,42.40
2018-12-10T06:20:43.703Z,42.30
2018-12-10T06:21:43.659Z,42.30
2018-12-10T06:22:43.603Z,42.40
2018-12-10T06:23:43.555Z,42.21
2018-12-10T06:24:43.506Z,42.40
2018-12-10T06:25:43.456Z,42.40
2018-12-10T06:26:43.408Z,42.02
2018-12-10T06:27:43.359Z,41.93
2018-12-10T06:28:43.830Z,42.02
2018-12-10T06:29:43.261Z,42.11
2018-12-10T06:30:43.211Z,41.93
2018-12-10T06:31:43.162Z,42.02
2018-12-10T06:32:43.113Z,42.02
2018-12-10T06:33:43.068Z,42.02
2018-12-10T06:34:43.014Z,41.93
2018-12-10T06:35:42.965Z,41.93
2018-12-10T06:36:42.917Z,41.93
2018-12-10T06:37:42.868Z,42.21
2018-12-10T06:38:42.818Z,42.11
2018-12-10T06:39:42.769Z,42.30
2018-12-10T06:40:42.720Z,42.21
2018-12-10T06:41:42.671Z,42.21
2018-12-10T06:42:42.620Z,42.11
2018-12-10T06:43:42.575Z,42.11
2018-12-10T06:44:42.528Z,42.11
2018-12-10T06:45:42.473Z,42.02
2018-12-10T06:46:42.431Z,42.02
2018-12-10T06:47:42.376Z,42.02
2018-12-10T06:48:42.327Z,42.02
2018-12-10T06:49:42.279Z,42.02
2018-12-10T06:50:42.228Z,42.02
2018-12-10T06:51:42.179Z,42.40
2018-12-10T06:52:42.130Z,42.30
2018-12-10T06:53:42.081Z,42.30
2018-12-10T06:54:42.031Z,42.30
2018-12-10T06:55:41.982Z,42.30
2018-12-10T06:56:41.937Z,42.40
2018-12-10T06:57:41.886Z,42.40
2018-12-10T06:58:41.834Z,42.40
2018-12-10T06:59:41.786Z,42.40
2018-12-10T07:00:41.737Z,42.21
2018-12-10T07:01:41.688Z,42.40
2018-12-10T07:02:41.638Z,42.50
2018-12-10T07:03:41.591Z,42.02
2018-12-10T07:04:41.541Z,42.02
2018-12-10T07:05:41.496Z,42.11
2018-12-10T07:06:41.442Z,41.93
2018-12-10T07:07:41.396Z,42.11
2018-12-10T07:08:41.344Z,42.02
2018-12-10T07:09:41.295Z,42.50
2018-12-10T07:10:41.244Z,42.30
2018-12-10T07:11:41.195Z,42.40
2018-12-10T07:12:41.147Z,42.40
2018-12-10T07:13:41.097Z,42.50
2018-12-10T07:14:41.050Z,42.60
2018-12-10T07:15:40.999Z,43.36
2018-12-10T07:16:40.951Z,43.17
2018-12-10T07:17:40.902Z,43.17
2018-12-10T07:18:40.852Z,43.27
2018-12-10T07:19:40.802Z,43.36
2018-12-10T07:20:40.754Z,43.46
2018-12-10T07:21:40.705Z,43.27
2018-12-10T07:22:40.663Z,43.07
2018-12-10T07:23:40.607Z,43.65
2018-12-10T07:24:40.557Z,43.84
2018-12-10T07:25:40.509Z,44.03
2018-12-10T07:26:40.459Z,44.13
2018-12-10T07:27:40.410Z,43.94
2018-12-10T07:28:40.360Z,43.74
2018-12-10T07:29:40.314Z,43.65
2018-12-10T07:30:41.580Z,43.27
2018-12-10T07:31:40.213Z,43.27
2018-12-10T07:32:40.165Z,42.98
2018-12-10T07:33:40.116Z,43.36
2018-12-10T07:34:41.424Z,43.27
2018-12-10T07:35:40.017Z,43.17
2018-12-10T07:36:39.969Z,43.27
2018-12-10T07:37:39.919Z,43.17
2018-12-10T07:38:39.871Z,43.17
2018-12-10T07:39:39.821Z,43.27
2018-12-10T07:40:39.772Z,43.17
2018-12-10T07:41:39.727Z,43.27
2018-12-10T07:42:39.673Z,43.07
2018-12-10T07:43:39.624Z,43.17
2018-12-10T07:44:39.574Z,43.17
2018-12-10T07:45:39.527Z,43.07
2018-12-10T07:46:39.477Z,43.07
2018-12-10T07:47:39.428Z,42.98
2018-12-10T07:48:39.378Z,43.17
2018-12-10T07:49:39.330Z,43.27
2018-12-10T07:50:39.282Z,43.36
2018-12-10T07:51:39.232Z,43.36
2018-12-10T07:52:39.182Z,43.46
2018-12-10T07:53:39.134Z,43.27
2018-12-10T07:54:39.085Z,43.46
2018-12-10T07:55:39.034Z,43.17
2018-12-10T07:56:38.992Z,43.17
2018-12-10T07:57:38.938Z,42.98
2018-12-10T07:58:38.888Z,43.07
2018-12-10T07:59:38.888Z,43.17
2018-12-10T08:00:38.789Z,43.27
2018-12-10T08:01:38.741Z,43.27
2018-12-10T08:02:38.691Z,42.98
2018-12-10T08:03:38.643Z,42.98
2018-12-10T08:04:38.594Z,43.17
2018-12-10T08:05:38.544Z,43.17
2018-12-10T08:06:38.495Z,43.17
2018-12-10T08:07:38.445Z,43.17
2018-12-10T08:08:38.397Z,43.46
2018-12-10T08:09:38.353Z,43.46
2018-12-10T08:10:38.299Z,43.46
2018-12-10T08:11:38.249Z,43.46
2018-12-10T08:12:38.200Z,43.36
2018-12-10T08:13:38.152Z,43.65
2018-12-10T08:14:38.103Z,43.36
2018-12-10T08:15:38.054Z,43.27
2018-12-10T08:16:38.003Z,43.10
2018-12-10T08:17:37.956Z,42.98
2018-12-10T08:18:37.908Z,43.19
2018-12-10T08:19:37.857Z,43.10
2018-12-10T08:20:37.809Z,43.57
2018-12-10T08:21:37.760Z,44.06
2018-12-10T08:22:37.713Z,43.57
2018-12-10T08:23:37.664Z,43.48
2018-12-10T08:24:37.612Z,43.48
2018-12-10T08:25:37.564Z,44.15
2018-12-10T08:26:37.516Z,43.67
2018-12-10T08:27:37.465Z,43.77
2018-12-10T08:28:37.417Z,43.77
2018-12-10T08:29:37.368Z,43.77
2018-12-10T08:30:37.319Z,43.38
2018-12-10T08:31:37.268Z,43.19
2018-12-10T08:32:37.220Z,43.10
2018-12-10T08:33:37.172Z,43.10
2018-12-10T08:34:41.381Z,43.19
2018-12-10T08:35:40.834Z,43.29
2018-12-10T08:36:37.025Z,43.38
2018-12-10T08:37:36.975Z,44.06
2018-12-10T08:38:36.927Z,43.96
2018-12-10T08:39:36.878Z,43.96
2018-12-10T08:40:36.831Z,43.77
2018-12-10T08:41:36.781Z,43.29
2018-12-10T08:42:36.734Z,43.29
2018-12-10T08:43:36.681Z,43.38
2018-12-10T08:44:36.635Z,43.57
2018-12-10T08:45:36.585Z,43.38
2018-12-10T08:46:36.535Z,43.29
2018-12-10T08:47:36.487Z,43.38
2018-12-10T08:48:36.442Z,43.57
2018-12-10T08:49:36.390Z,43.48
2018-12-10T08:50:36.343Z,43.57
2018-12-10T08:51:36.291Z,43.67
2018-12-10T08:52:36.245Z,43.29
2018-12-10T08:53:36.197Z,43.38
2018-12-10T08:54:36.143Z,43.29
2018-12-10T08:55:36.094Z,43.17
2018-12-10T08:56:36.049Z,43.19
2018-12-10T08:57:35.998Z,43.38
2018-12-10T08:58:35.949Z,43.38
2018-12-10T08:59:35.902Z,42.90
2018-12-10T09:00:35.852Z,42.71
2018-12-10T09:01:35.802Z,42.71
2018-12-10T09:02:35.754Z,42.61
2018-12-10T09:03:35.703Z,42.52
2018-12-10T09:04:36.684Z,42.43
2018-12-10T09:05:35.607Z,42.52
2018-12-10T09:06:35.568Z,42.43
2018-12-10T09:07:35.514Z,42.52
2018-12-10T09:08:35.459Z,42.33
2018-12-10T09:09:35.414Z,42.52
2018-12-10T09:10:35.364Z,42.61
2018-12-10T09:11:35.313Z,42.52
2018-12-10T09:12:35.265Z,42.71
2018-12-10T09:13:35.218Z,42.52
2018-12-10T09:14:35.169Z,42.43
2018-12-10T09:15:35.120Z,42.52
2018-12-10T09:16:35.079Z,42.04
2018-12-10T09:17:35.019Z,42.04
2018-12-10T09:18:34.970Z,42.13
2018-12-10T09:19:34.923Z,42.04
2018-12-10T09:20:34.873Z,41.94
2018-12-10T09:21:34.826Z,42.04
2018-12-10T09:22:34.775Z,42.04
2018-12-10T09:23:34.726Z,42.52
2018-12-10T09:24:34.678Z,42.52
2018-12-10T09:25:34.632Z,42.52
2018-12-10T09:26:34.581Z,42.33
2018-12-10T09:27:34.531Z,42.33
2018-12-10T09:28:34.484Z,42.52
2018-12-10T09:29:34.518Z,42.33
2018-12-10T09:30:34.386Z,42.43
2018-12-10T09:31:34.337Z,42.52
2018-12-10T09:32:34.288Z,42.13
2018-12-10T09:33:34.240Z,42.04
2018-12-10T09:34:34.190Z,42.04
2018-12-10T09:35:34.141Z,42.13
2018-12-10T09:36:34.094Z,42.13
2018-12-10T09:37:34.045Z,42.43
2018-12-10T09:38:33.995Z,42.52
2018-12-10T09:39:33.997Z,42.43
2018-12-10T09:40:33.898Z,42.43
2018-12-10T09:41:33.850Z,42.52
2018-12-10T09:42:33.802Z,42.43
2018-12-10T09:43:33.751Z,42.33
2018-12-10T09:44:33.702Z,42.43
2018-12-10T09:45:33.661Z,42.43
2018-12-10T09:46:33.605Z,42.43
2018-12-10T09:47:33.557Z,42.43
2018-12-10T09:48:33.509Z,41.94
2018-12-10T09:49:33.459Z,42.04
2018-12-10T09:50:33.410Z,42.43
2018-12-10T09:51:33.362Z,42.33
2018-12-10T09:52:33.313Z,42.43
2018-12-10T09:53:33.265Z,42.43
2018-12-10T09:54:33.216Z,42.23
2018-12-10T09:55:33.166Z,42.04
2018-12-10T09:56:33.121Z,42.04
2018-12-10T09:57:33.070Z,42.04
2018-12-10T09:58:33.021Z,42.04
2018-12-10T09:59:32.972Z,42.52
2018-12-10T10:00:32.929Z,42.43
2018-12-10T10:01:32.874Z,42.33
2018-12-10T10:02:32.829Z,42.43
2018-12-10T10:03:32.777Z,42.33
2018-12-10T10:04:32.729Z,42.33
2018-12-10T10:05:32.680Z,42.23
2018-12-10T10:06:32.629Z,42.52
2018-12-10T10:07:32.582Z,42.71
2018-12-10T10:08:32.535Z,42.52
2018-12-10T10:09:32.484Z,42.52
2018-12-10T10:10:32.436Z,42.43
2018-12-10T10:11:32.387Z,42.43
2018-12-10T10:12:32.339Z,42.43
2018-12-10T10:13:32.289Z,42.33
2018-12-10T10:14:32.241Z,42.52
2018-12-10T10:15:32.192Z,42.52
2018-12-10T10:16:32.144Z,42.33
2018-12-10T10:17:32.095Z,42.43
2018-12-10T10:18:32.048Z,42.33
2018-12-10T10:19:32.001Z,42.43
2018-12-10T10:20:31.948Z,42.52
2018-12-10T10:21:31.900Z,42.43
2018-12-10T10:22:31.851Z,42.13
2018-12-10T10:23:31.802Z,42.04
2018-12-10T10:24:31.753Z,42.04
2018-12-10T10:25:31.704Z,42.04
2018-12-10T10:26:31.655Z,42.23
2018-12-10T10:27:31.657Z,42.23
2018-12-10T10:28:31.557Z,42.23
2018-12-10T10:29:31.509Z,42.33
2018-12-10T10:30:31.459Z,42.33
2018-12-10T10:31:31.623Z,42.13
2018-12-10T10:32:31.362Z,42.23
2018-12-10T10:33:32.489Z,42.33
2018-12-10T10:34:31.269Z,42.23
2018-12-10T10:35:31.216Z,42.04
2018-12-10T10:36:31.167Z,41.94
2018-12-10T10:37:31.119Z,42.04
2018-12-10T10:38:31.071Z,42.04
2018-12-10T10:39:31.021Z,42.04
2018-12-10T10:40:30.973Z,42.04
2018-12-10T10:41:31.428Z,42.43
2018-12-10T10:42:30.874Z,42.04
2018-12-10T10:43:30.828Z,42.13
2018-12-10T10:44:30.778Z,42.13
2018-12-10T10:45:34.693Z,42.35
2018-12-10T10:46:30.679Z,42.25
2018-12-10T10:47:30.631Z,42.16
2018-12-10T10:48:30.582Z,41.96
2018-12-10T10:49:30.534Z,41.96
2018-12-10T10:50:30.535Z,41.96
2018-12-10T10:51:30.437Z,41.99
2018-12-10T10:52:33.340Z,41.99
2018-12-10T10:53:30.340Z,42.08
2018-12-10T10:54:30.291Z,41.89
2018-12-10T10:55:30.242Z,41.02
2018-12-10T10:56:30.193Z,41.50
2018-12-10T10:57:31.441Z,41.70
2018-12-10T10:58:30.095Z,41.60
2018-12-10T10:59:30.049Z,41.31
2018-12-10T11:00:29.999Z,41.12
2018-12-10T11:01:29.950Z,41.31
2018-12-10T11:02:29.903Z,41.22
2018-12-10T11:03:29.854Z,41.02
2018-12-10T11:04:37.389Z,41.02
2018-12-10T11:05:29.759Z,40.83
2018-12-10T11:06:29.709Z,41.31
2018-12-10T11:07:29.661Z,40.83
2018-12-10T11:08:29.613Z,40.83
2018-12-10T11:09:29.564Z,40.73
2018-12-10T11:10:29.516Z,40.83
2018-12-10T11:11:29.468Z,40.64
2018-12-10T11:12:29.421Z,40.83
2018-12-10T11:13:29.372Z,40.93
2018-12-10T11:14:29.323Z,40.28
2018-12-10T11:15:29.273Z,40.37
2018-12-10T11:16:29.227Z,40.25
2018-12-10T11:17:29.179Z,40.25
2018-12-10T11:18:29.130Z,40.47
2018-12-10T11:19:29.082Z,40.47
2018-12-10T11:20:29.033Z,40.28
2018-12-10T11:21:28.986Z,40.08
2018-12-10T11:22:28.936Z,40.08
2018-12-10T11:23:28.890Z,40.08
2018-12-10T11:24:28.841Z,39.70
2018-12-10T11:25:28.793Z,39.99
2018-12-10T11:26:28.745Z,39.99
2018-12-10T11:27:28.701Z,39.61
2018-12-10T11:28:28.649Z,39.79
2018-12-10T11:29:28.601Z,39.99
2018-12-10T11:30:28.555Z,40.08
2018-12-10T11:31:28.504Z,39.89
2018-12-10T11:32:28.459Z,39.70
2018-12-10T11:33:28.409Z,39.70
2018-12-10T11:34:28.361Z,39.99
2018-12-10T11:35:28.313Z,40.08
2018-12-10T11:36:28.264Z,40.18
2018-12-10T11:37:28.267Z,39.99
2018-12-10T11:38:28.172Z,40.08
2018-12-10T11:39:28.120Z,40.08
2018-12-10T11:40:28.073Z,40.08
2018-12-10T11:41:28.026Z,39.89
2018-12-10T11:42:27.977Z,40.18
2018-12-10T11:43:27.929Z,39.99
2018-12-10T11:44:27.882Z,39.99
2018-12-10T11:45:27.835Z,39.70
2018-12-10T11:46:27.789Z,39.79
2018-12-10T11:47:27.737Z,39.61
2018-12-10T11:48:27.741Z,39.89
2018-12-10T11:49:27.642Z,39.61
2018-12-10T11:50:27.593Z,39.79
2018-12-10T11:51:27.546Z,39.99
2018-12-10T11:52:27.500Z,39.79
2018-12-10T11:53:27.449Z,39.70
2018-12-10T11:54:27.404Z,39.61
2018-12-10T11:55:27.355Z,39.41
2018-12-10T11:56:27.307Z,39.43
2018-12-10T11:57:27.259Z,39.72
2018-12-10T11:58:27.210Z,39.79
2018-12-10T11:59:27.163Z,39.81
2018-12-10T12:00:27.115Z,39.79
2018-12-10T12:01:27.071Z,39.81
2018-12-10T12:02:29.854Z,39.53
2018-12-10T12:03:26.971Z,39.91
2018-12-10T12:04:26.927Z,39.91
2018-12-10T12:05:26.876Z,39.72
2018-12-10T12:06:26.827Z,39.33
2018-12-10T12:07:26.779Z,39.33
2018-12-10T12:08:26.732Z,39.62
2018-12-10T12:09:26.687Z,39.43
2018-12-10T12:10:26.635Z,39.33
2018-12-10T12:11:26.587Z,39.14
2018-12-10T12:12:26.541Z,39.33
2018-12-10T12:13:26.495Z,39.33
2018-12-10T12:14:26.448Z,39.53
2018-12-10T12:15:26.397Z,39.33
2018-12-10T12:16:26.349Z,39.33
2018-12-10T12:17:26.302Z,39.24
2018-12-10T12:18:26.254Z,39.24
2018-12-10T12:19:26.206Z,39.33
2018-12-10T12:20:26.159Z,39.24
2018-12-10T12:21:26.156Z,39.04
2018-12-10T12:22:26.063Z,38.95
2018-12-10T12:23:26.015Z,38.76
2018-12-10T12:24:25.967Z,38.66
2018-12-10T12:25:25.920Z,38.66
2018-12-10T12:26:25.872Z,38.66
2018-12-10T12:27:25.822Z,38.66
2018-12-10T12:28:25.775Z,38.47
2018-12-10T12:29:25.729Z,38.47
2018-12-10T12:30:25.680Z,38.56
2018-12-10T12:31:25.631Z,38.47
2018-12-10T12:32:25.587Z,38.28
2018-12-10T12:33:25.537Z,38.28
2018-12-10T12:34:25.489Z,38.47
2018-12-10T12:35:25.442Z,38.56
2018-12-10T12:36:25.394Z,38.56
2018-12-10T12:37:25.346Z,38.66
2018-12-10T12:38:25.297Z,38.85
2018-12-10T12:39:25.250Z,38.66
2018-12-10T12:40:25.202Z,38.95
2018-12-10T12:41:25.156Z,39.04
2018-12-10T12:42:25.107Z,38.56
2018-12-10T12:43:25.060Z,38.66
2018-12-10T12:44:25.016Z,38.76
2018-12-10T12:45:24.965Z,38.47
2018-12-10T12:46:24.916Z,38.28
2018-12-10T12:47:24.919Z,38.47
2018-12-10T12:48:24.820Z,38.28
2018-12-10T12:49:24.774Z,38.59
2018-12-10T12:50:24.727Z,38.56
2018-12-10T12:51:24.761Z,38.37